sensor_id;sensor_type;location;lat;lon;timestamp;temperature;humidity
61201;DHT22;47065;52.898;6.992;2023-03-21T00:01:04;8.90;99.90
61201;DHT22;47065;52.898;6.992;2023-03-21T00:03:31;8.90;99.90
61201;DHT22;47065;52.898;6.992;2023-03-21T00:05:58;8.90;99.90
61201;DHT22;47065;52.898;6.992;2023-03-21T00:08:25;8.90;99.90
61201;DHT22;47065;52.898;6.992;2023-03-21T00:10:59;8.90;99.90
61201;DHT22;47065;52.898;6.992;2023-03-21T00:13:26;8.90;99.90
61201;DHT22;47065;52.898;6.992;2023-03-21T00:15:52;9.00;99.90
61201;DHT22;47065;52.898;6.992;2023-03-21T00:18:22;8.90;99.90
61201;DHT22;47065;52.898;6.992;2023-03-21T00:21:02;9.00;99.90
61201;DHT22;47065;52.898;6.992;2023-03-21T00:23:29;9.00;99.90
61201;DHT22;47065;52.898;6.992;2023-03-21T00:25:56;9.00;99.90
61201;DHT22;47065;52.898;6.992;2023-03-21T00:28:23;9.00;99.90
61201;DHT22;47065;52.898;6.992;2023-03-21T00:30:49;9.00;99.90
61201;DHT22;47065;52.898;6.992;2023-03-21T00:33:15;9.10;99.90
61201;DHT22;47065;52.898;6.992;2023-03-21T00:35:45;9.00;99.90
61201;DHT22;47065;52.898;6.992;2023-03-21T00:38:14;9.10;99.90
61201;DHT22;47065;52.898;6.992;2023-03-21T00:40:40;9.10;99.90
61201;DHT22;47065;52.898;6.992;2023-03-21T00:43:05;9.10;99.90
61201;DHT22;47065;52.898;6.992;2023-03-21T00:45:31;9.10;99.90
61201;DHT22;47065;52.898;6.992;2023-03-21T00:47:57;9.10;99.90
61201;DHT22;47065;52.898;6.992;2023-03-21T00:50:23;9.10;99.90
61201;DHT22;47065;52.898;6.992;2023-03-21T00:52:49;9.10;99.90
61201;DHT22;47065;52.898;6.992;2023-03-21T00:55:17;9.10;99.90
61201;DHT22;47065;52.898;6.992;2023-03-21T00:57:43;9.10;99.90
61201;DHT22;47065;52.898;6.992;2023-03-21T01:00:11;9.10;99.90
61201;DHT22;47065;52.898;6.992;2023-03-21T01:02:38;9.10;99.90
61201;DHT22;47065;52.898;6.992;2023-03-21T01:05:08;9.10;99.90
61201;DHT22;47065;52.898;6.992;2023-03-21T01:07:35;9.10;99.90
61201;DHT22;47065;52.898;6.992;2023-03-21T01:10:01;9.10;99.90
61201;DHT22;47065;52.898;6.992;2023-03-21T01:12:27;9.20;99.90
61201;DHT22;47065;52.898;6.992;2023-03-21T01:14:53;9.10;99.90
61201;DHT22;47065;52.898;6.992;2023-03-21T01:17:18;9.10;99.90
61201;DHT22;47065;52.898;6.992;2023-03-21T01:19:44;9.10;99.90
61201;DHT22;47065;52.898;6.992;2023-03-21T01:22:10;9.10;99.90
61201;DHT22;47065;52.898;6.992;2023-03-21T01:24:36;9.10;99.90
61201;DHT22;47065;52.898;6.992;2023-03-21T01:27:02;9.10;99.90
61201;DHT22;47065;52.898;6.992;2023-03-21T01:29:28;9.10;99.90
61201;DHT22;47065;52.898;6.992;2023-03-21T01:31:53;9.10;99.90
61201;DHT22;47065;52.898;6.992;2023-03-21T01:34:20;9.10;99.90
61201;DHT22;47065;52.898;6.992;2023-03-21T01:36:46;9.10;99.90
61201;DHT22;47065;52.898;6.992;2023-03-21T01:39:11;9.10;99.90
61201;DHT22;47065;52.898;6.992;2023-03-21T01:41:40;9.10;99.90
61201;DHT22;47065;52.898;6.992;2023-03-21T01:44:08;9.10;99.90
61201;DHT22;47065;52.898;6.992;2023-03-21T01:46:43;9.20;99.90
61201;DHT22;47065;52.898;6.992;2023-03-21T01:49:33;9.20;99.90
61201;DHT22;47065;52.898;6.992;2023-03-21T01:52:04;9.10;99.90
61201;DHT22;47065;52.898;6.992;2023-03-21T01:54:34;9.10;99.90
61201;DHT22;47065;52.898;6.992;2023-03-21T01:57:06;9.20;99.90
61201;DHT22;47065;52.898;6.992;2023-03-21T01:59:35;9.20;99.90
61201;DHT22;47065;52.898;6.992;2023-03-21T02:02:04;9.10;99.90
61201;DHT22;47065;52.898;6.992;2023-03-21T02:04:34;9.20;99.90
61201;DHT22;47065;52.898;6.992;2023-03-21T02:07:12;9.20;99.90
61201;DHT22;47065;52.898;6.992;2023-03-21T02:09:46;9.20;99.90
61201;DHT22;47065;52.898;6.992;2023-03-21T02:12:13;9.20;99.90
61201;DHT22;47065;52.898;6.992;2023-03-21T02:14:41;9.20;99.90
61201;DHT22;47065;52.898;6.992;2023-03-21T02:28:57;9.20;99.90
61201;DHT22;47065;52.898;6.992;2023-03-21T02:45:09;9.30;99.90
61201;DHT22;47065;52.898;6.992;2023-03-21T02:47:47;9.40;99.90
61201;DHT22;47065;52.898;6.992;2023-03-21T02:53:00;9.40;99.90
61201;DHT22;47065;52.898;6.992;2023-03-21T02:55:30;9.40;99.90
61201;DHT22;47065;52.898;6.992;2023-03-21T02:57:58;9.40;99.90
61201;DHT22;47065;52.898;6.992;2023-03-21T03:00:28;9.40;99.90
61201;DHT22;47065;52.898;6.992;2023-03-21T03:02:54;9.40;99.90
61201;DHT22;47065;52.898;6.992;2023-03-21T03:05:23;9.40;99.90
61201;DHT22;47065;52.898;6.992;2023-03-21T03:08:19;9.40;99.90
61201;DHT22;47065;52.898;6.992;2023-03-21T03:16:29;9.40;99.90
61201;DHT22;47065;52.898;6.992;2023-03-21T03:19:03;9.50;99.90
61201;DHT22;47065;52.898;6.992;2023-03-21T03:21:49;9.40;99.90
61201;DHT22;47065;52.898;6.992;2023-03-21T03:29:27;9.50;99.90
61201;DHT22;47065;52.898;6.992;2023-03-21T03:31:59;9.40;99.90
61201;DHT22;47065;52.898;6.992;2023-03-21T03:34:29;9.40;99.90
61201;DHT22;47065;52.898;6.992;2023-03-21T03:36:59;9.40;99.90
61201;DHT22;47065;52.898;6.992;2023-03-21T03:40:11;9.40;99.90
61201;DHT22;47065;52.898;6.992;2023-03-21T03:42:46;9.50;99.90
61201;DHT22;47065;52.898;6.992;2023-03-21T03:45:14;9.40;99.90
61201;DHT22;47065;52.898;6.992;2023-03-21T03:48:07;9.40;99.90
61201;DHT22;47065;52.898;6.992;2023-03-21T03:53:36;9.40;99.90
61201;DHT22;47065;52.898;6.992;2023-03-21T03:56:03;9.40;99.90
61201;DHT22;47065;52.898;6.992;2023-03-21T03:58:29;9.40;99.90
61201;DHT22;47065;52.898;6.992;2023-03-21T04:00:56;9.40;99.90
61201;DHT22;47065;52.898;6.992;2023-03-21T04:03:22;9.40;99.90
61201;DHT22;47065;52.898;6.992;2023-03-21T04:05:48;9.40;99.90
61201;DHT22;47065;52.898;6.992;2023-03-21T04:08:14;9.40;99.90
61201;DHT22;47065;52.898;6.992;2023-03-21T04:10:41;9.50;99.90
61201;DHT22;47065;52.898;6.992;2023-03-21T04:13:07;9.40;99.90
61201;DHT22;47065;52.898;6.992;2023-03-21T04:15:33;9.40;99.90
61201;DHT22;47065;52.898;6.992;2023-03-21T04:17:59;9.40;99.90
61201;DHT22;47065;52.898;6.992;2023-03-21T04:20:25;9.40;99.90
61201;DHT22;47065;52.898;6.992;2023-03-21T04:22:50;9.40;99.90
61201;DHT22;47065;52.898;6.992;2023-03-21T04:25:16;9.40;99.90
61201;DHT22;47065;52.898;6.992;2023-03-21T04:27:42;9.40;99.90
61201;DHT22;47065;52.898;6.992;2023-03-21T04:30:11;9.40;99.90
61201;DHT22;47065;52.898;6.992;2023-03-21T04:32:37;9.40;99.90
61201;DHT22;47065;52.898;6.992;2023-03-21T04:35:08;9.40;99.90
61201;DHT22;47065;52.898;6.992;2023-03-21T04:37:35;9.40;99.90
61201;DHT22;47065;52.898;6.992;2023-03-21T04:40:02;9.40;99.90
61201;DHT22;47065;52.898;6.992;2023-03-21T04:42:34;9.40;99.90
61201;DHT22;47065;52.898;6.992;2023-03-21T04:45:01;9.40;99.90
61201;DHT22;47065;52.898;6.992;2023-03-21T04:47:27;9.40;99.90
61201;DHT22;47065;52.898;6.992;2023-03-21T04:49:53;9.40;99.90
61201;DHT22;47065;52.898;6.992;2023-03-21T04:52:18;9.40;99.90
61201;DHT22;47065;52.898;6.992;2023-03-21T04:54:44;9.40;99.90
61201;DHT22;47065;52.898;6.992;2023-03-21T04:57:10;9.40;99.90
61201;DHT22;47065;52.898;6.992;2023-03-21T04:59:36;9.40;99.90
61201;DHT22;47065;52.898;6.992;2023-03-21T05:02:02;9.40;99.90
61201;DHT22;47065;52.898;6.992;2023-03-21T05:04:28;9.40;99.90
61201;DHT22;47065;52.898;6.992;2023-03-21T05:06:54;9.40;99.90
61201;DHT22;47065;52.898;6.992;2023-03-21T05:09:20;9.40;99.90
61201;DHT22;47065;52.898;6.992;2023-03-21T05:11:49;9.40;99.90
61201;DHT22;47065;52.898;6.992;2023-03-21T05:14:18;9.40;99.90
61201;DHT22;47065;52.898;6.992;2023-03-21T05:16:45;9.40;99.90
61201;DHT22;47065;52.898;6.992;2023-03-21T05:19:18;9.40;99.90
61201;DHT22;47065;52.898;6.992;2023-03-21T05:21:45;9.30;99.90
61201;DHT22;47065;52.898;6.992;2023-03-21T05:24:17;9.30;99.90
61201;DHT22;47065;52.898;6.992;2023-03-21T05:26:45;9.30;99.90
61201;DHT22;47065;52.898;6.992;2023-03-21T05:29:15;9.30;99.90
61201;DHT22;47065;52.898;6.992;2023-03-21T05:31:44;9.30;99.90
61201;DHT22;47065;52.898;6.992;2023-03-21T05:34:11;9.30;99.90
61201;DHT22;47065;52.898;6.992;2023-03-21T05:36:37;9.30;99.90
61201;DHT22;47065;52.898;6.992;2023-03-21T05:39:03;9.30;99.90
61201;DHT22;47065;52.898;6.992;2023-03-21T05:41:29;9.30;99.90
61201;DHT22;47065;52.898;6.992;2023-03-21T05:43:55;9.30;99.90
61201;DHT22;47065;52.898;6.992;2023-03-21T05:46:21;9.30;99.90
61201;DHT22;47065;52.898;6.992;2023-03-21T05:48:49;9.30;99.90
61201;DHT22;47065;52.898;6.992;2023-03-21T05:51:15;9.30;99.90
61201;DHT22;47065;52.898;6.992;2023-03-21T05:53:42;9.30;99.90
61201;DHT22;47065;52.898;6.992;2023-03-21T05:56:08;9.30;99.90
61201;DHT22;47065;52.898;6.992;2023-03-21T05:58:34;9.20;99.90
61201;DHT22;47065;52.898;6.992;2023-03-21T06:01:00;9.20;99.90
61201;DHT22;47065;52.898;6.992;2023-03-21T06:03:25;9.30;99.90
61201;DHT22;47065;52.898;6.992;2023-03-21T06:05:51;9.30;99.90
61201;DHT22;47065;52.898;6.992;2023-03-21T06:08:17;9.30;99.90
61201;DHT22;47065;52.898;6.992;2023-03-21T06:10:42;9.30;99.90
61201;DHT22;47065;52.898;6.992;2023-03-21T06:13:08;9.30;99.90
61201;DHT22;47065;52.898;6.992;2023-03-21T06:15:40;9.30;99.90
61201;DHT22;47065;52.898;6.992;2023-03-21T06:18:09;9.30;99.90
61201;DHT22;47065;52.898;6.992;2023-03-21T06:20:38;9.20;99.90
61201;DHT22;47065;52.898;6.992;2023-03-21T06:23:04;9.30;99.90
61201;DHT22;47065;52.898;6.992;2023-03-21T06:25:30;9.30;99.90
61201;DHT22;47065;52.898;6.992;2023-03-21T06:27:55;9.30;99.90
61201;DHT22;47065;52.898;6.992;2023-03-21T06:30:21;9.20;99.90
61201;DHT22;47065;52.898;6.992;2023-03-21T06:32:47;9.20;99.90
61201;DHT22;47065;52.898;6.992;2023-03-21T06:35:13;9.30;99.90
61201;DHT22;47065;52.898;6.992;2023-03-21T06:37:38;9.30;99.90
61201;DHT22;47065;52.898;6.992;2023-03-21T06:40:05;9.30;99.90
61201;DHT22;47065;52.898;6.992;2023-03-21T06:42:33;9.30;99.90
61201;DHT22;47065;52.898;6.992;2023-03-21T06:44:59;9.30;99.90
61201;DHT22;47065;52.898;6.992;2023-03-21T06:47:24;9.30;99.90
61201;DHT22;47065;52.898;6.992;2023-03-21T06:49:50;9.30;99.90
61201;DHT22;47065;52.898;6.992;2023-03-21T06:52:15;9.30;99.90
61201;DHT22;47065;52.898;6.992;2023-03-21T06:54:41;9.30;99.90
61201;DHT22;47065;52.898;6.992;2023-03-21T06:57:07;9.30;99.90
61201;DHT22;47065;52.898;6.992;2023-03-21T06:59:32;9.30;99.90
61201;DHT22;47065;52.898;6.992;2023-03-21T07:01:58;9.30;99.90
61201;DHT22;47065;52.898;6.992;2023-03-21T07:04:24;9.30;99.90
61201;DHT22;47065;52.898;6.992;2023-03-21T07:06:51;9.30;99.90
61201;DHT22;47065;52.898;6.992;2023-03-21T07:09:17;9.30;99.90
61201;DHT22;47065;52.898;6.992;2023-03-21T07:11:44;9.30;99.90
61201;DHT22;47065;52.898;6.992;2023-03-21T07:14:10;9.40;99.90
61201;DHT22;47065;52.898;6.992;2023-03-21T07:16:35;9.30;99.90
61201;DHT22;47065;52.898;6.992;2023-03-21T07:19:01;9.30;99.90
61201;DHT22;47065;52.898;6.992;2023-03-21T07:21:27;9.30;99.90
61201;DHT22;47065;52.898;6.992;2023-03-21T07:23:53;9.40;99.90
61201;DHT22;47065;52.898;6.992;2023-03-21T07:26:18;9.40;99.90
61201;DHT22;47065;52.898;6.992;2023-03-21T07:28:45;9.40;99.90
61201;DHT22;47065;52.898;6.992;2023-03-21T07:31:15;9.40;99.90
61201;DHT22;47065;52.898;6.992;2023-03-21T07:33:42;9.40;99.90
61201;DHT22;47065;52.898;6.992;2023-03-21T07:36:12;9.40;99.90
61201;DHT22;47065;52.898;6.992;2023-03-21T07:38:40;9.40;99.90
61201;DHT22;47065;52.898;6.992;2023-03-21T07:41:05;9.40;99.90
61201;DHT22;47065;52.898;6.992;2023-03-21T07:43:31;9.40;99.90
61201;DHT22;47065;52.898;6.992;2023-03-21T07:45:58;9.50;99.90
61201;DHT22;47065;52.898;6.992;2023-03-21T07:48:24;9.50;99.90
61201;DHT22;47065;52.898;6.992;2023-03-21T07:50:50;9.50;99.90
61201;DHT22;47065;52.898;6.992;2023-03-21T07:53:15;9.50;99.90
61201;DHT22;47065;52.898;6.992;2023-03-21T07:55:41;9.50;99.90
61201;DHT22;47065;52.898;6.992;2023-03-21T07:58:07;9.50;99.90
61201;DHT22;47065;52.898;6.992;2023-03-21T08:00:32;9.50;99.90
61201;DHT22;47065;52.898;6.992;2023-03-21T08:02:58;9.50;99.90
61201;DHT22;47065;52.898;6.992;2023-03-21T08:05:26;9.50;99.90
61201;DHT22;47065;52.898;6.992;2023-03-21T08:07:52;9.50;99.90
61201;DHT22;47065;52.898;6.992;2023-03-21T08:10:18;9.50;99.90
61201;DHT22;47065;52.898;6.992;2023-03-21T08:12:45;9.50;99.90
61201;DHT22;47065;52.898;6.992;2023-03-21T08:15:11;9.50;99.90
61201;DHT22;47065;52.898;6.992;2023-03-21T08:17:38;9.50;99.90
61201;DHT22;47065;52.898;6.992;2023-03-21T08:20:08;9.50;99.90
61201;DHT22;47065;52.898;6.992;2023-03-21T08:22:36;9.50;99.90
61201;DHT22;47065;52.898;6.992;2023-03-21T08:25:06;9.50;99.90
61201;DHT22;47065;52.898;6.992;2023-03-21T08:27:33;9.50;99.90
61201;DHT22;47065;52.898;6.992;2023-03-21T08:30:00;9.50;99.90
61201;DHT22;47065;52.898;6.992;2023-03-21T08:32:26;9.50;99.90
61201;DHT22;47065;52.898;6.992;2023-03-21T08:35:00;9.50;99.90
61201;DHT22;47065;52.898;6.992;2023-03-21T08:37:29;9.50;99.90
61201;DHT22;47065;52.898;6.992;2023-03-21T08:39:55;9.50;99.90
61201;DHT22;47065;52.898;6.992;2023-03-21T08:42:21;9.50;99.90
61201;DHT22;47065;52.898;6.992;2023-03-21T08:44:47;9.50;99.90
61201;DHT22;47065;52.898;6.992;2023-03-21T08:47:13;9.50;99.90
61201;DHT22;47065;52.898;6.992;2023-03-21T08:49:40;9.50;99.90
61201;DHT22;47065;52.898;6.992;2023-03-21T08:52:07;9.50;99.90
61201;DHT22;47065;52.898;6.992;2023-03-21T08:54:33;9.50;99.90
61201;DHT22;47065;52.898;6.992;2023-03-21T08:56:59;9.50;99.90
61201;DHT22;47065;52.898;6.992;2023-03-21T08:59:24;9.60;99.90
61201;DHT22;47065;52.898;6.992;2023-03-21T09:01:50;9.60;99.90
61201;DHT22;47065;52.898;6.992;2023-03-21T09:04:16;9.60;99.90
61201;DHT22;47065;52.898;6.992;2023-03-21T09:06:43;9.60;99.90
61201;DHT22;47065;52.898;6.992;2023-03-21T09:09:10;9.60;99.90
61201;DHT22;47065;52.898;6.992;2023-03-21T09:11:37;9.60;99.90
61201;DHT22;47065;52.898;6.992;2023-03-21T09:14:03;9.60;99.90
61201;DHT22;47065;52.898;6.992;2023-03-21T09:16:29;9.60;99.90
61201;DHT22;47065;52.898;6.992;2023-03-21T09:18:55;9.60;99.90
61201;DHT22;47065;52.898;6.992;2023-03-21T09:21:24;9.70;99.90
61201;DHT22;47065;52.898;6.992;2023-03-21T09:23:51;9.70;99.90
61201;DHT22;47065;52.898;6.992;2023-03-21T09:26:20;9.70;99.90
61201;DHT22;47065;52.898;6.992;2023-03-21T09:28:46;9.70;99.90
61201;DHT22;47065;52.898;6.992;2023-03-21T09:31:14;9.70;99.90
61201;DHT22;47065;52.898;6.992;2023-03-21T09:33:41;9.70;99.90
61201;DHT22;47065;52.898;6.992;2023-03-21T09:36:09;9.70;99.90
61201;DHT22;47065;52.898;6.992;2023-03-21T09:38:42;9.70;99.90
61201;DHT22;47065;52.898;6.992;2023-03-21T09:41:41;9.70;99.90
61201;DHT22;47065;52.898;6.992;2023-03-21T09:44:18;9.70;99.90
61201;DHT22;47065;52.898;6.992;2023-03-21T09:47:20;9.80;99.90
61201;DHT22;47065;52.898;6.992;2023-03-21T09:50:13;9.70;99.90
61201;DHT22;47065;52.898;6.992;2023-03-21T09:55:33;9.70;99.90
61201;DHT22;47065;52.898;6.992;2023-03-21T10:00:37;9.70;99.90
61201;DHT22;47065;52.898;6.992;2023-03-21T10:03:09;9.80;99.90
61201;DHT22;47065;52.898;6.992;2023-03-21T10:05:43;9.80;99.90
61201;DHT22;47065;52.898;6.992;2023-03-21T10:08:17;9.80;99.90
61201;DHT22;47065;52.898;6.992;2023-03-21T10:10:52;9.80;99.90
61201;DHT22;47065;52.898;6.992;2023-03-21T10:13:23;9.80;99.90
61201;DHT22;47065;52.898;6.992;2023-03-21T10:15:55;9.90;99.90
61201;DHT22;47065;52.898;6.992;2023-03-21T10:18:25;9.90;99.90
61201;DHT22;47065;52.898;6.992;2023-03-21T10:20:51;9.90;99.90
61201;DHT22;47065;52.898;6.992;2023-03-21T10:23:20;9.90;99.90
61201;DHT22;47065;52.898;6.992;2023-03-21T10:25:55;9.90;99.90
61201;DHT22;47065;52.898;6.992;2023-03-21T10:28:35;9.90;99.90
61201;DHT22;47065;52.898;6.992;2023-03-21T10:31:04;10.00;99.90
61201;DHT22;47065;52.898;6.992;2023-03-21T10:33:38;9.90;99.90
61201;DHT22;47065;52.898;6.992;2023-03-21T10:36:13;10.00;99.90
61201;DHT22;47065;52.898;6.992;2023-03-21T10:39:04;9.90;99.90
61201;DHT22;47065;52.898;6.992;2023-03-21T10:41:31;10.00;99.90
61201;DHT22;47065;52.898;6.992;2023-03-21T10:46:30;9.90;99.90
61201;DHT22;47065;52.898;6.992;2023-03-21T10:48:58;9.90;99.90
61201;DHT22;47065;52.898;6.992;2023-03-21T10:51:30;9.90;99.90
61201;DHT22;47065;52.898;6.992;2023-03-21T10:54:04;9.90;99.90
61201;DHT22;47065;52.898;6.992;2023-03-21T10:56:35;9.90;99.90
61201;DHT22;47065;52.898;6.992;2023-03-21T10:59:01;9.90;99.90
61201;DHT22;47065;52.898;6.992;2023-03-21T11:01:40;9.90;99.90
61201;DHT22;47065;52.898;6.992;2023-03-21T11:04:33;9.90;99.90
61201;DHT22;47065;52.898;6.992;2023-03-21T11:07:04;9.90;99.90
61201;DHT22;47065;52.898;6.992;2023-03-21T11:09:49;9.90;99.90
61201;DHT22;47065;52.898;6.992;2023-03-21T11:12:17;10.00;99.90
61201;DHT22;47065;52.898;6.992;2023-03-21T11:14:48;10.00;99.90
61201;DHT22;47065;52.898;6.992;2023-03-21T11:20:02;10.00;99.90
61201;DHT22;47065;52.898;6.992;2023-03-21T11:22:37;10.00;99.90
61201;DHT22;47065;52.898;6.992;2023-03-21T11:25:07;10.00;99.90
61201;DHT22;47065;52.898;6.992;2023-03-21T11:27:34;10.00;99.90
61201;DHT22;47065;52.898;6.992;2023-03-21T11:30:02;10.10;99.90
61201;DHT22;47065;52.898;6.992;2023-03-21T11:32:34;10.10;99.90
61201;DHT22;47065;52.898;6.992;2023-03-21T11:40:07;10.20;99.90
61201;DHT22;47065;52.898;6.992;2023-03-21T11:42:42;10.30;99.90
61201;DHT22;47065;52.898;6.992;2023-03-21T11:45:18;10.30;99.90
61201;DHT22;47065;52.898;6.992;2023-03-21T11:47:45;10.30;99.90
61201;DHT22;47065;52.898;6.992;2023-03-21T11:50:35;10.40;99.90
61201;DHT22;47065;52.898;6.992;2023-03-21T11:56:01;10.50;99.90
61201;DHT22;47065;52.898;6.992;2023-03-21T12:06:37;10.70;99.90
61201;DHT22;47065;52.898;6.992;2023-03-21T12:11:47;10.80;99.90
61201;DHT22;47065;52.898;6.992;2023-03-21T12:26:11;10.90;99.90
61201;DHT22;47065;52.898;6.992;2023-03-21T12:34:32;10.90;99.90
61201;DHT22;47065;52.898;6.992;2023-03-21T12:37:27;11.00;99.90
61201;DHT22;47065;52.898;6.992;2023-03-21T12:40:04;11.00;99.90
61201;DHT22;47065;52.898;6.992;2023-03-21T12:45:34;11.10;99.90
61201;DHT22;47065;52.898;6.992;2023-03-21T12:48:16;11.10;99.90
61201;DHT22;47065;52.898;6.992;2023-03-21T12:50:44;11.20;99.90
61201;DHT22;47065;52.898;6.992;2023-03-21T12:53:38;11.20;99.90
61201;DHT22;47065;52.898;6.992;2023-03-21T12:56:10;11.20;99.90
61201;DHT22;47065;52.898;6.992;2023-03-21T12:58:59;11.20;99.90
61201;DHT22;47065;52.898;6.992;2023-03-21T13:01:27;11.20;99.90
61201;DHT22;47065;52.898;6.992;2023-03-21T13:04:28;11.20;99.90
61201;DHT22;47065;52.898;6.992;2023-03-21T13:06:55;11.20;99.90
61201;DHT22;47065;52.898;6.992;2023-03-21T13:09:35;11.30;99.90
61201;DHT22;47065;52.898;6.992;2023-03-21T13:12:12;11.30;99.90
61201;DHT22;47065;52.898;6.992;2023-03-21T13:17:39;11.30;99.90
61201;DHT22;47065;52.898;6.992;2023-03-21T13:20:43;11.40;99.90
61201;DHT22;47065;52.898;6.992;2023-03-21T13:23:10;11.30;99.90
61201;DHT22;47065;52.898;6.992;2023-03-21T13:25:45;11.40;99.90
61201;DHT22;47065;52.898;6.992;2023-03-21T13:28:21;11.30;99.90
61201;DHT22;47065;52.898;6.992;2023-03-21T13:30:50;11.30;99.90
61201;DHT22;47065;52.898;6.992;2023-03-21T13:33:28;11.30;99.90
61201;DHT22;47065;52.898;6.992;2023-03-21T13:36:07;11.30;99.90
61201;DHT22;47065;52.898;6.992;2023-03-21T13:38:35;11.30;99.90
61201;DHT22;47065;52.898;6.992;2023-03-21T13:41:12;11.30;99.90
61201;DHT22;47065;52.898;6.992;2023-03-21T13:51:43;11.50;99.90
61201;DHT22;47065;52.898;6.992;2023-03-21T13:54:17;11.60;99.90
61201;DHT22;47065;52.898;6.992;2023-03-21T13:59:10;11.70;99.90
61201;DHT22;47065;52.898;6.992;2023-03-21T14:01:40;11.60;99.90
61201;DHT22;47065;52.898;6.992;2023-03-21T14:04:20;11.60;99.90
61201;DHT22;47065;52.898;6.992;2023-03-21T14:06:54;11.60;99.90
61201;DHT22;47065;52.898;6.992;2023-03-21T14:09:24;11.60;99.90
61201;DHT22;47065;52.898;6.992;2023-03-21T14:11:52;11.60;99.90
61201;DHT22;47065;52.898;6.992;2023-03-21T14:14:20;11.50;99.90
61201;DHT22;47065;52.898;6.992;2023-03-21T14:16:46;11.60;99.90
61201;DHT22;47065;52.898;6.992;2023-03-21T14:19:12;11.60;99.90
61201;DHT22;47065;52.898;6.992;2023-03-21T14:21:46;11.60;99.90
61201;DHT22;47065;52.898;6.992;2023-03-21T14:24:13;11.70;99.90
61201;DHT22;47065;52.898;6.992;2023-03-21T14:26:47;11.70;99.90
61201;DHT22;47065;52.898;6.992;2023-03-21T14:29:23;11.70;99.90
61201;DHT22;47065;52.898;6.992;2023-03-21T14:31:49;11.70;99.90
61201;DHT22;47065;52.898;6.992;2023-03-21T14:34:15;11.70;99.90
61201;DHT22;47065;52.898;6.992;2023-03-21T14:36:42;11.70;99.90
61201;DHT22;47065;52.898;6.992;2023-03-21T14:39:13;11.80;99.90
61201;DHT22;47065;52.898;6.992;2023-03-21T14:41:49;11.80;99.90
61201;DHT22;47065;52.898;6.992;2023-03-21T14:44:18;11.80;99.90
61201;DHT22;47065;52.898;6.992;2023-03-21T14:47:17;11.90;99.90
61201;DHT22;47065;52.898;6.992;2023-03-21T14:49:43;12.00;99.90
61201;DHT22;47065;52.898;6.992;2023-03-21T14:52:17;12.00;99.90
61201;DHT22;47065;52.898;6.992;2023-03-21T14:54:44;12.00;99.90
61201;DHT22;47065;52.898;6.992;2023-03-21T14:57:14;12.10;99.90
61201;DHT22;47065;52.898;6.992;2023-03-21T14:59:46;12.10;99.90
61201;DHT22;47065;52.898;6.992;2023-03-21T15:02:24;12.20;99.90
61201;DHT22;47065;52.898;6.992;2023-03-21T15:04:56;12.30;99.90
61201;DHT22;47065;52.898;6.992;2023-03-21T15:07:29;12.40;99.90
61201;DHT22;47065;52.898;6.992;2023-03-21T15:09:59;12.50;99.90
61201;DHT22;47065;52.898;6.992;2023-03-21T15:12:26;12.50;99.90
61201;DHT22;47065;52.898;6.992;2023-03-21T15:14:52;12.60;99.90
61201;DHT22;47065;52.898;6.992;2023-03-21T15:17:19;12.60;99.90
61201;DHT22;47065;52.898;6.992;2023-03-21T15:19:45;12.60;99.90
61201;DHT22;47065;52.898;6.992;2023-03-21T15:22:28;12.60;99.90
61201;DHT22;47065;52.898;6.992;2023-03-21T15:24:59;12.60;99.90
61201;DHT22;47065;52.898;6.992;2023-03-21T15:27:26;12.60;99.90
61201;DHT22;47065;52.898;6.992;2023-03-21T15:29:53;12.60;99.90
61201;DHT22;47065;52.898;6.992;2023-03-21T15:32:24;12.60;99.90
61201;DHT22;47065;52.898;6.992;2023-03-21T15:34:52;12.60;99.90
61201;DHT22;47065;52.898;6.992;2023-03-21T15:37:26;12.60;99.90
61201;DHT22;47065;52.898;6.992;2023-03-21T15:40:04;12.70;99.90
61201;DHT22;47065;52.898;6.992;2023-03-21T15:42:37;12.60;99.90
61201;DHT22;47065;52.898;6.992;2023-03-21T15:45:22;12.60;99.90
61201;DHT22;47065;52.898;6.992;2023-03-21T15:50:34;12.60;99.90
61201;DHT22;47065;52.898;6.992;2023-03-21T15:53:10;12.60;99.90
61201;DHT22;47065;52.898;6.992;2023-03-21T15:55:48;12.50;99.90
61201;DHT22;47065;52.898;6.992;2023-03-21T15:58:21;12.50;99.90
61201;DHT22;47065;52.898;6.992;2023-03-21T16:00:56;12.40;99.90
61201;DHT22;47065;52.898;6.992;2023-03-21T16:03:28;12.40;99.90
61201;DHT22;47065;52.898;6.992;2023-03-21T16:08:32;12.30;99.90
61201;DHT22;47065;52.898;6.992;2023-03-21T16:13:51;12.30;99.90
61201;DHT22;47065;52.898;6.992;2023-03-21T16:16:22;12.20;99.90
61201;DHT22;47065;52.898;6.992;2023-03-21T16:18:48;12.20;99.90
61201;DHT22;47065;52.898;6.992;2023-03-21T16:21:16;12.20;99.90
61201;DHT22;47065;52.898;6.992;2023-03-21T16:23:43;12.20;99.90
61201;DHT22;47065;52.898;6.992;2023-03-21T16:26:11;12.20;99.90
61201;DHT22;47065;52.898;6.992;2023-03-21T16:28:38;12.20;99.90
61201;DHT22;47065;52.898;6.992;2023-03-21T16:31:04;12.20;99.90
61201;DHT22;47065;52.898;6.992;2023-03-21T16:33:30;12.20;99.90
61201;DHT22;47065;52.898;6.992;2023-03-21T16:35:56;12.20;99.90
61201;DHT22;47065;52.898;6.992;2023-03-21T16:38:22;12.20;99.90
61201;DHT22;47065;52.898;6.992;2023-03-21T16:40:48;12.20;99.90
61201;DHT22;47065;52.898;6.992;2023-03-21T16:43:15;12.20;99.90
61201;DHT22;47065;52.898;6.992;2023-03-21T16:45:41;12.20;99.90
61201;DHT22;47065;52.898;6.992;2023-03-21T16:48:08;12.10;99.90
61201;DHT22;47065;52.898;6.992;2023-03-21T16:50:41;12.10;99.90
61201;DHT22;47065;52.898;6.992;2023-03-21T16:53:07;12.10;99.90
61201;DHT22;47065;52.898;6.992;2023-03-21T16:55:34;12.10;99.90
61201;DHT22;47065;52.898;6.992;2023-03-21T16:58:01;12.10;99.90
61201;DHT22;47065;52.898;6.992;2023-03-21T17:00:29;12.10;99.90
61201;DHT22;47065;52.898;6.992;2023-03-21T17:02:59;12.10;99.90
61201;DHT22;47065;52.898;6.992;2023-03-21T17:05:27;12.10;99.90
61201;DHT22;47065;52.898;6.992;2023-03-21T17:07:55;12.10;99.90
61201;DHT22;47065;52.898;6.992;2023-03-21T17:10:25;12.10;99.90
61201;DHT22;47065;52.898;6.992;2023-03-21T17:12:51;12.10;99.90
61201;DHT22;47065;52.898;6.992;2023-03-21T17:15:17;12.00;99.90
61201;DHT22;47065;52.898;6.992;2023-03-21T17:17:44;12.00;99.90
61201;DHT22;47065;52.898;6.992;2023-03-21T17:20:29;12.00;99.90
61201;DHT22;47065;52.898;6.992;2023-03-21T17:22:56;12.00;99.90
61201;DHT22;47065;52.898;6.992;2023-03-21T17:25:22;12.00;99.90
61201;DHT22;47065;52.898;6.992;2023-03-21T17:27:48;11.90;99.90
61201;DHT22;47065;52.898;6.992;2023-03-21T17:30:31;11.80;99.90
61201;DHT22;47065;52.898;6.992;2023-03-21T17:32:57;11.80;99.90
61201;DHT22;47065;52.898;6.992;2023-03-21T17:35:24;11.70;99.90
61201;DHT22;47065;52.898;6.992;2023-03-21T17:37:50;11.60;99.90
61201;DHT22;47065;52.898;6.992;2023-03-21T17:40:22;11.60;99.90
61201;DHT22;47065;52.898;6.992;2023-03-21T17:42:48;11.50;99.90
61201;DHT22;47065;52.898;6.992;2023-03-21T17:45:15;11.50;99.90
61201;DHT22;47065;52.898;6.992;2023-03-21T17:47:41;11.40;99.90
61201;DHT22;47065;52.898;6.992;2023-03-21T17:50:20;11.40;99.90